Aérodrome :
LOGIN :

S'inscrire | Disclaimer

   EN    FR    IT 

 










Légende :    VFR   VFR Marginal   IFR   IFR Intensif   IFR Très Intensif
Visi : 
Plafond : 
>= 8 km
>= 3000ft
5 à 8 km
1000 à 3000 ft
1500m à 5 km
500 à 1000 ft
800 à 1500m
200 à 500 ft
< 800m
< 200 ft
Symboles :   Orages  Brouillard  Fortes neiges  Fortes précipitations  Vent > 20 kt
SIGMETs :   Divers  Orages  Givrage  Turbulence  Onde Orograph.  Cendres Volcan.






- Altitude de l'aérodrome : 1036 ft
- Code IATA : ERF


EDDE - Erfurt

DERNIER METAR :
  • 291150Z 24018KT 9999 FEW026 BKN046 04/M02 Q1004 TEMPO 24020G30KT

METARs EXPIRÉS :
  • 291120Z 24018KT 9999 FEW020 SCT030 BKN046 04/M02 Q1004 TEMPO 23015G25KT
  • 291050Z 24017KT 9999 FEW020 SCT028 BKN043 04/M01 Q1005 TEMPO 23015G25KT
  • 291020Z 24016KT 9999 FEW017 BKN027 03/M01 Q1005 TEMPO 23015G25KT
  • 290950Z 24014KT 210V270 9999 FEW020 BKN023 03/M01 Q1005 TEMPO 23015G25KT
  • 290920Z 24013KT 9999 FEW019 SCT026 03/M01 Q1004 TEMPO 23015G25KT

TAF TAF EDDE
Valide du 29 à 12h jusqu'au 30 à 12h UTC


291100Z 2912/3012 25020KT 9999 SCT030
PROB30
TEMPO 2912/2917 29020G35KT SCT020CB
BECMG 2917/2919 25015G25KT
BECMG 2920/2922 23010KT
BECMG 3002/3004 23015G25KT
TEMPO 3002/3010 4000 RA OVC013
TEMPO 3005/3012 24020G30KT



MET'MAP, la Météo Aéronautique d'un coup d'oeil ! - Copyright ORBIFLY Décembre 2007 - Disclaimer

ORBIFLY MET'MAP TEAM :

Programmation & Développement : Alexandra Zaïnal
Sur une idée originale de : Baudouin d'Aumeries
Assistance à la programmation : Marc-Olivier Méhu
Soutien technique & logistique : Manuel Goepfert

Contact : metmap@orbifly.com




SOURCES & CREDITS :

   NOAA